sensor_id;sensor_type;location;lat;lon;timestamp;P1;durP1;ratioP1;P2;durP2;ratioP2
62509;SDS011;48558;48.242;11.654;2022-11-15T00:00:58;4.78;;;3.55;;
62509;SDS011;48558;48.242;11.654;2022-11-15T00:05:11;4.57;;;3.08;;
62509;SDS011;48558;48.242;11.654;2022-11-15T00:09:23;4.65;;;3.38;;
62509;SDS011;48558;48.242;11.654;2022-11-15T00:13:41;3.47;;;3.17;;
62509;SDS011;48558;48.242;11.654;2022-11-15T00:17:54;4.18;;;3.63;;
62509;SDS011;48558;48.242;11.654;2022-11-15T00:22:07;6.65;;;3.40;;
62509;SDS011;48558;48.242;11.654;2022-11-15T00:26:19;5.75;;;3.33;;
62509;SDS011;48558;48.242;11.654;2022-11-15T00:30:31;5.30;;;3.58;;
62509;SDS011;48558;48.242;11.654;2022-11-15T00:34:44;4.00;;;3.35;;
62509;SDS011;48558;48.242;11.654;2022-11-15T00:38:56;3.60;;;3.15;;
62509;SDS011;48558;48.242;11.654;2022-11-15T00:43:08;5.00;;;3.30;;
62509;SDS011;48558;48.242;11.654;2022-11-15T00:47:20;3.25;;;2.95;;
62509;SDS011;48558;48.242;11.654;2022-11-15T00:51:33;4.78;;;3.08;;
62509;SDS011;48558;48.242;11.654;2022-11-15T00:55:45;2.92;;;2.72;;
62509;SDS011;48558;48.242;11.654;2022-11-15T00:59:58;3.65;;;3.22;;
62509;SDS011;48558;48.242;11.654;2022-11-15T01:04:10;4.95;;;3.10;;
62509;SDS011;48558;48.242;11.654;2022-11-15T01:08:23;3.45;;;2.80;;
62509;SDS011;48558;48.242;11.654;2022-11-15T01:12:35;4.65;;;3.30;;
62509;SDS011;48558;48.242;11.654;2022-11-15T01:16:48;3.03;;;2.67;;
62509;SDS011;48558;48.242;11.654;2022-11-15T01:21:04;3.88;;;3.22;;
62509;SDS011;48558;48.242;11.654;2022-11-15T01:25:27;3.13;;;2.83;;
62509;SDS011;48558;48.242;11.654;2022-11-15T01:29:39;4.57;;;3.22;;
62509;SDS011;48558;48.242;11.654;2022-11-15T01:33:52;3.65;;;3.30;;
62509;SDS011;48558;48.242;11.654;2022-11-15T01:38:04;10.20;;;3.97;;
62509;SDS011;48558;48.242;11.654;2022-11-15T01:42:16;4.30;;;3.88;;
62509;SDS011;48558;48.242;11.654;2022-11-15T01:46:31;4.85;;;3.72;;
62509;SDS011;48558;48.242;11.654;2022-11-15T01:50:48;4.88;;;3.53;;
62509;SDS011;48558;48.242;11.654;2022-11-15T01:59:25;4.20;;;3.63;;
62509;SDS011;48558;48.242;11.654;2022-11-15T02:03:40;4.25;;;3.67;;
62509;SDS011;48558;48.242;11.654;2022-11-15T02:07:59;4.60;;;3.60;;
62509;SDS011;48558;48.242;11.654;2022-11-15T02:12:13;4.95;;;3.28;;
62509;SDS011;48558;48.242;11.654;2022-11-15T02:21:11;4.20;;;3.30;;
62509;SDS011;48558;48.242;11.654;2022-11-15T02:25:57;5.95;;;4.07;;
62509;SDS011;48558;48.242;11.654;2022-11-15T02:30:35;5.57;;;3.53;;
62509;SDS011;48558;48.242;11.654;2022-11-15T02:35:02;5.30;;;3.70;;
62509;SDS011;48558;48.242;11.654;2022-11-15T02:43:49;3.13;;;2.83;;
62509;SDS011;48558;48.242;11.654;2022-11-15T02:48:31;5.25;;;3.55;;
62509;SDS011;48558;48.242;11.654;2022-11-15T02:52:50;4.28;;;3.15;;
62509;SDS011;48558;48.242;11.654;2022-11-15T02:57:07;4.35;;;3.65;;
62509;SDS011;48558;48.242;11.654;2022-11-15T03:06:15;3.47;;;3.17;;
62509;SDS011;48558;48.242;11.654;2022-11-15T03:10:45;3.75;;;3.22;;
62509;SDS011;48558;48.242;11.654;2022-11-15T03:15:18;4.15;;;3.03;;
62509;SDS011;48558;48.242;11.654;2022-11-15T03:19:40;3.35;;;3.05;;
62509;SDS011;48558;48.242;11.654;2022-11-15T03:23:54;3.10;;;2.80;;
62509;SDS011;48558;48.242;11.654;2022-11-15T03:28:11;3.20;;;2.90;;
62509;SDS011;48558;48.242;11.654;2022-11-15T03:32:28;3.00;;;2.63;;
62509;SDS011;48558;48.242;11.654;2022-11-15T03:36:43;3.83;;;2.88;;
62509;SDS011;48558;48.242;11.654;2022-11-15T03:41:00;3.30;;;3.00;;
62509;SDS011;48558;48.242;11.654;2022-11-15T03:45:17;3.47;;;3.15;;
62509;SDS011;48558;48.242;11.654;2022-11-15T03:49:34;2.95;;;2.65;;
62509;SDS011;48558;48.242;11.654;2022-11-15T03:53:50;4.28;;;3.00;;
62509;SDS011;48558;48.242;11.654;2022-11-15T03:58:02;4.43;;;3.10;;
62509;SDS011;48558;48.242;11.654;2022-11-15T04:02:14;2.67;;;2.47;;
62509;SDS011;48558;48.242;11.654;2022-11-15T04:06:27;3.40;;;2.75;;
62509;SDS011;48558;48.242;11.654;2022-11-15T04:10:39;2.88;;;2.60;;
62509;SDS011;48558;48.242;11.654;2022-11-15T04:14:51;4.95;;;3.15;;
62509;SDS011;48558;48.242;11.654;2022-11-15T04:19:18;2.92;;;2.67;;
62509;SDS011;48558;48.242;11.654;2022-11-15T04:23:49;3.08;;;2.50;;
62509;SDS011;48558;48.242;11.654;2022-11-15T04:28:17;4.68;;;2.80;;
62509;SDS011;48558;48.242;11.654;2022-11-15T04:32:30;3.03;;;2.42;;
62509;SDS011;48558;48.242;11.654;2022-11-15T04:36:42;3.70;;;2.88;;
62509;SDS011;48558;48.242;11.654;2022-11-15T04:41:13;2.70;;;2.50;;
62509;SDS011;48558;48.242;11.654;2022-11-15T04:45:26;2.92;;;2.30;;
62509;SDS011;48558;48.242;11.654;2022-11-15T04:49:38;2.47;;;2.25;;
62509;SDS011;48558;48.242;11.654;2022-11-15T04:53:50;2.60;;;2.38;;
62509;SDS011;48558;48.242;11.654;2022-11-15T04:58:03;2.55;;;2.28;;
62509;SDS011;48558;48.242;11.654;2022-11-15T05:02:15;4.18;;;2.72;;
62509;SDS011;48558;48.242;11.654;2022-11-15T05:06:28;4.20;;;2.50;;
62509;SDS011;48558;48.242;11.654;2022-11-15T05:10:41;2.92;;;2.55;;
62509;SDS011;48558;48.242;11.654;2022-11-15T05:14:53;2.72;;;2.50;;
62509;SDS011;48558;48.242;11.654;2022-11-15T05:19:05;3.90;;;2.75;;
62509;SDS011;48558;48.242;11.654;2022-11-15T05:23:18;2.40;;;2.22;;
62509;SDS011;48558;48.242;11.654;2022-11-15T05:27:30;2.33;;;2.13;;
62509;SDS011;48558;48.242;11.654;2022-11-15T05:31:43;3.10;;;2.63;;
62509;SDS011;48558;48.242;11.654;2022-11-15T05:35:56;3.20;;;2.67;;
62509;SDS011;48558;48.242;11.654;2022-11-15T05:40:14;2.63;;;2.35;;
62509;SDS011;48558;48.242;11.654;2022-11-15T05:44:27;2.92;;;2.47;;
62509;SDS011;48558;48.242;11.654;2022-11-15T05:48:40;4.00;;;2.50;;
62509;SDS011;48558;48.242;11.654;2022-11-15T05:52:56;2.63;;;2.42;;
62509;SDS011;48558;48.242;11.654;2022-11-15T05:57:15;2.25;;;2.05;;
62509;SDS011;48558;48.242;11.654;2022-11-15T06:01:28;1.98;;;1.80;;
62509;SDS011;48558;48.242;11.654;2022-11-15T06:05:40;2.67;;;2.47;;
62509;SDS011;48558;48.242;11.654;2022-11-15T06:09:52;4.70;;;2.63;;
62509;SDS011;48558;48.242;11.654;2022-11-15T06:14:05;4.78;;;2.42;;
62509;SDS011;48558;48.242;11.654;2022-11-15T06:18:17;2.03;;;1.90;;
62509;SDS011;48558;48.242;11.654;2022-11-15T06:22:29;6.47;;;2.97;;
62509;SDS011;48558;48.242;11.654;2022-11-15T06:26:42;3.47;;;2.75;;
62509;SDS011;48558;48.242;11.654;2022-11-15T06:30:54;6.20;;;2.63;;
62509;SDS011;48558;48.242;11.654;2022-11-15T06:35:06;1.92;;;1.83;;
62509;SDS011;48558;48.242;11.654;2022-11-15T06:39:19;2.30;;;2.10;;
62509;SDS011;48558;48.242;11.654;2022-11-15T06:43:31;2.72;;;2.30;;
62509;SDS011;48558;48.242;11.654;2022-11-15T06:47:45;2.47;;;2.28;;
62509;SDS011;48558;48.242;11.654;2022-11-15T06:51:58;4.53;;;1.95;;
62509;SDS011;48558;48.242;11.654;2022-11-15T06:56:10;2.47;;;2.28;;
62509;SDS011;48558;48.242;11.654;2022-11-15T07:00:23;5.20;;;2.47;;
62509;SDS011;48558;48.242;11.654;2022-11-15T07:04:35;4.88;;;1.80;;
62509;SDS011;48558;48.242;11.654;2022-11-15T07:08:48;3.22;;;2.38;;
62509;SDS011;48558;48.242;11.654;2022-11-15T07:13:00;5.47;;;2.47;;
62509;SDS011;48558;48.242;11.654;2022-11-15T07:17:12;5.15;;;1.85;;
62509;SDS011;48558;48.242;11.654;2022-11-15T07:21:25;3.35;;;2.45;;
62509;SDS011;48558;48.242;11.654;2022-11-15T07:25:38;5.40;;;2.30;;
62509;SDS011;48558;48.242;11.654;2022-11-15T07:29:50;3.05;;;2.50;;
62509;SDS011;48558;48.242;11.654;2022-11-15T07:34:02;4.00;;;2.53;;
62509;SDS011;48558;48.242;11.654;2022-11-15T07:38:15;2.70;;;2.50;;
62509;SDS011;48558;48.242;11.654;2022-11-15T07:42:27;3.38;;;2.40;;
62509;SDS011;48558;48.242;11.654;2022-11-15T07:47:01;4.63;;;2.88;;
62509;SDS011;48558;48.242;11.654;2022-11-15T07:51:13;2.85;;;2.65;;
62509;SDS011;48558;48.242;11.654;2022-11-15T07:55:27;3.42;;;3.13;;
62509;SDS011;48558;48.242;11.654;2022-11-15T07:59:41;5.07;;;2.88;;
62509;SDS011;48558;48.242;11.654;2022-11-15T08:03:54;2.88;;;2.65;;
62509;SDS011;48558;48.242;11.654;2022-11-15T08:08:10;7.72;;;3.08;;
62509;SDS011;48558;48.242;11.654;2022-11-15T08:12:23;3.83;;;2.80;;
62509;SDS011;48558;48.242;11.654;2022-11-15T08:16:35;3.90;;;3.00;;
62509;SDS011;48558;48.242;11.654;2022-11-15T08:20:47;3.65;;;2.92;;
62509;SDS011;48558;48.242;11.654;2022-11-15T08:25:00;4.28;;;2.90;;
62509;SDS011;48558;48.242;11.654;2022-11-15T08:29:12;4.60;;;3.65;;
62509;SDS011;48558;48.242;11.654;2022-11-15T08:33:25;6.53;;;3.20;;
62509;SDS011;48558;48.242;11.654;2022-11-15T08:37:38;12.00;;;3.72;;
62509;SDS011;48558;48.242;11.654;2022-11-15T08:41:50;2.78;;;2.58;;
62509;SDS011;48558;48.242;11.654;2022-11-15T08:46:02;4.32;;;3.35;;
62509;SDS011;48558;48.242;11.654;2022-11-15T08:50:15;3.80;;;2.83;;
62509;SDS011;48558;48.242;11.654;2022-11-15T08:54:28;6.72;;;3.33;;
62509;SDS011;48558;48.242;11.654;2022-11-15T08:58:40;5.53;;;3.08;;
62509;SDS011;48558;48.242;11.654;2022-11-15T09:02:54;3.25;;;2.70;;
62509;SDS011;48558;48.242;11.654;2022-11-15T09:07:06;3.33;;;3.03;;
62509;SDS011;48558;48.242;11.654;2022-11-15T09:11:19;2.47;;;2.20;;
62509;SDS011;48558;48.242;11.654;2022-11-15T09:15:33;3.42;;;2.60;;
62509;SDS011;48558;48.242;11.654;2022-11-15T09:19:45;3.83;;;2.45;;
62509;SDS011;48558;48.242;11.654;2022-11-15T09:23:58;2.90;;;2.42;;
62509;SDS011;48558;48.242;11.654;2022-11-15T09:28:10;3.05;;;2.22;;
62509;SDS011;48558;48.242;11.654;2022-11-15T09:32:22;1.92;;;1.80;;
62509;SDS011;48558;48.242;11.654;2022-11-15T09:36:35;2.67;;;2.20;;
62509;SDS011;48558;48.242;11.654;2022-11-15T09:40:51;2.22;;;1.80;;
62509;SDS011;48558;48.242;11.654;2022-11-15T09:49:38;2.90;;;1.90;;
62509;SDS011;48558;48.242;11.654;2022-11-15T09:53:57;3.35;;;2.00;;
62509;SDS011;48558;48.242;11.654;2022-11-15T09:58:39;3.08;;;2.22;;
62509;SDS011;48558;48.242;11.654;2022-11-15T10:03:22;2.28;;;2.08;;
62509;SDS011;48558;48.242;11.654;2022-11-15T10:07:51;2.63;;;2.40;;
62509;SDS011;48558;48.242;11.654;2022-11-15T10:12:14;2.47;;;2.20;;
62509;SDS011;48558;48.242;11.654;2022-11-15T10:21:15;3.60;;;2.15;;
62509;SDS011;48558;48.242;11.654;2022-11-15T10:25:32;2.50;;;2.20;;
62509;SDS011;48558;48.242;11.654;2022-11-15T10:29:49;2.55;;;2.25;;
62509;SDS011;48558;48.242;11.654;2022-11-15T10:34:12;2.67;;;2.10;;
62509;SDS011;48558;48.242;11.654;2022-11-15T10:38:27;2.60;;;2.40;;
62509;SDS011;48558;48.242;11.654;2022-11-15T10:42:40;2.40;;;2.20;;
62509;SDS011;48558;48.242;11.654;2022-11-15T10:51:39;3.30;;;1.75;;
62509;SDS011;48558;48.242;11.654;2022-11-15T10:55:55;2.60;;;2.00;;
62509;SDS011;48558;48.242;11.654;2022-11-15T11:04:22;3.22;;;2.50;;
62509;SDS011;48558;48.242;11.654;2022-11-15T11:08:35;2.47;;;2.10;;
62509;SDS011;48558;48.242;11.654;2022-11-15T11:12:48;2.45;;;2.25;;
62509;SDS011;48558;48.242;11.654;2022-11-15T11:21:35;2.00;;;1.90;;
62509;SDS011;48558;48.242;11.654;2022-11-15T11:25:55;2.00;;;1.90;;
62509;SDS011;48558;48.242;11.654;2022-11-15T11:35:08;2.15;;;1.95;;
62509;SDS011;48558;48.242;11.654;2022-11-15T11:48:28;2.38;;;2.17;;
62509;SDS011;48558;48.242;11.654;2022-11-15T11:57:17;2.90;;;2.65;;
62509;SDS011;48558;48.242;11.654;2022-11-15T12:01:42;3.35;;;2.20;;
62509;SDS011;48558;48.242;11.654;2022-11-15T12:05:57;2.50;;;2.30;;
62509;SDS011;48558;48.242;11.654;2022-11-15T12:10:23;2.70;;;2.50;;
62509;SDS011;48558;48.242;11.654;2022-11-15T12:14:45;2.65;;;2.42;;
62509;SDS011;48558;48.242;11.654;2022-11-15T12:19:01;3.92;;;2.90;;
62509;SDS011;48558;48.242;11.654;2022-11-15T12:23:16;2.92;;;2.60;;
62509;SDS011;48558;48.242;11.654;2022-11-15T12:27:37;3.38;;;3.00;;
62509;SDS011;48558;48.242;11.654;2022-11-15T12:31:53;2.80;;;2.60;;
62509;SDS011;48558;48.242;11.654;2022-11-15T12:36:11;4.28;;;2.58;;
62509;SDS011;48558;48.242;11.654;2022-11-15T12:41:25;3.10;;;2.80;;
62509;SDS011;48558;48.242;11.654;2022-11-15T12:45:28;2.55;;;2.35;;
62509;SDS011;48558;48.242;11.654;2022-11-15T12:49:48;2.97;;;2.78;;
62509;SDS011;48558;48.242;11.654;2022-11-15T12:54:11;2.60;;;2.40;;
62509;SDS011;48558;48.242;11.654;2022-11-15T13:03:19;3.00;;;2.53;;
62509;SDS011;48558;48.242;11.654;2022-11-15T13:11:51;3.13;;;2.70;;
62509;SDS011;48558;48.242;11.654;2022-11-15T13:16:05;3.33;;;2.88;;
62509;SDS011;48558;48.242;11.654;2022-11-15T13:20:29;3.05;;;2.75;;
62509;SDS011;48558;48.242;11.654;2022-11-15T13:24:43;2.92;;;2.67;;
62509;SDS011;48558;48.242;11.654;2022-11-15T13:28:55;2.88;;;2.63;;
62509;SDS011;48558;48.242;11.654;2022-11-15T13:33:15;3.15;;;2.83;;
62509;SDS011;48558;48.242;11.654;2022-11-15T13:37:37;3.15;;;2.85;;
62509;SDS011;48558;48.242;11.654;2022-11-15T13:41:51;3.92;;;3.03;;
62509;SDS011;48558;48.242;11.654;2022-11-15T13:50:36;4.40;;;2.58;;
62509;SDS011;48558;48.242;11.654;2022-11-15T13:59:34;3.55;;;2.78;;
62509;SDS011;48558;48.242;11.654;2022-11-15T14:04:06;3.38;;;3.08;;
62509;SDS011;48558;48.242;11.654;2022-11-15T14:12:32;3.28;;;2.97;;
62509;SDS011;48558;48.242;11.654;2022-11-15T14:16:47;3.45;;;3.10;;
62509;SDS011;48558;48.242;11.654;2022-11-15T14:21:06;4.68;;;3.13;;
62509;SDS011;48558;48.242;11.654;2022-11-15T14:25:23;3.28;;;2.92;;
62509;SDS011;48558;48.242;11.654;2022-11-15T14:29:39;3.63;;;3.33;;
62509;SDS011;48558;48.242;11.654;2022-11-15T14:33:51;3.78;;;3.20;;
62509;SDS011;48558;48.242;11.654;2022-11-15T14:38:03;6.78;;;3.13;;
62509;SDS011;48558;48.242;11.654;2022-11-15T14:42:16;4.05;;;3.22;;
62509;SDS011;48558;48.242;11.654;2022-11-15T14:46:29;3.30;;;3.00;;
62509;SDS011;48558;48.242;11.654;2022-11-15T14:50:41;5.53;;;3.53;;
62509;SDS011;48558;48.242;11.654;2022-11-15T14:54:54;8.02;;;3.67;;
62509;SDS011;48558;48.242;11.654;2022-11-15T14:59:07;4.72;;;3.75;;
62509;SDS011;48558;48.242;11.654;2022-11-15T15:03:29;4.35;;;3.65;;
62509;SDS011;48558;48.242;11.654;2022-11-15T15:07:43;3.85;;;3.45;;
62509;SDS011;48558;48.242;11.654;2022-11-15T15:11:56;4.18;;;3.60;;
62509;SDS011;48558;48.242;11.654;2022-11-15T15:16:15;5.20;;;4.00;;
62509;SDS011;48558;48.242;11.654;2022-11-15T15:20:27;5.28;;;3.65;;
62509;SDS011;48558;48.242;11.654;2022-11-15T15:24:41;4.10;;;3.63;;
62509;SDS011;48558;48.242;11.654;2022-11-15T15:28:54;5.00;;;4.10;;
62509;SDS011;48558;48.242;11.654;2022-11-15T15:33:06;4.85;;;4.18;;
62509;SDS011;48558;48.242;11.654;2022-11-15T15:37:25;4.90;;;4.00;;
62509;SDS011;48558;48.242;11.654;2022-11-15T15:41:38;8.50;;;4.43;;
62509;SDS011;48558;48.242;11.654;2022-11-15T15:45:50;6.53;;;3.88;;
62509;SDS011;48558;48.242;11.654;2022-11-15T15:50:03;4.15;;;3.53;;
62509;SDS011;48558;48.242;11.654;2022-11-15T15:54:16;5.45;;;4.35;;
62509;SDS011;48558;48.242;11.654;2022-11-15T15:58:28;5.60;;;3.92;;
62509;SDS011;48558;48.242;11.654;2022-11-15T16:02:41;9.50;;;3.65;;
62509;SDS011;48558;48.242;11.654;2022-11-15T16:06:58;8.00;;;4.22;;
62509;SDS011;48558;48.242;11.654;2022-11-15T16:11:11;7.25;;;4.53;;
62509;SDS011;48558;48.242;11.654;2022-11-15T16:15:31;5.82;;;4.18;;
62509;SDS011;48558;48.242;11.654;2022-11-15T16:19:44;6.35;;;3.92;;
62509;SDS011;48558;48.242;11.654;2022-11-15T16:24:04;5.22;;;3.97;;
62509;SDS011;48558;48.242;11.654;2022-11-15T16:28:18;6.95;;;3.65;;
62509;SDS011;48558;48.242;11.654;2022-11-15T16:32:33;4.20;;;3.58;;
62509;SDS011;48558;48.242;11.654;2022-11-15T16:36:46;5.43;;;3.60;;
62509;SDS011;48558;48.242;11.654;2022-11-15T16:40:58;5.07;;;3.88;;
62509;SDS011;48558;48.242;11.654;2022-11-15T16:45:11;8.65;;;3.95;;
62509;SDS011;48558;48.242;11.654;2022-11-15T16:49:25;5.28;;;3.88;;
62509;SDS011;48558;48.242;11.654;2022-11-15T16:53:47;5.45;;;4.05;;
62509;SDS011;48558;48.242;11.654;2022-11-15T16:58:00;5.38;;;4.18;;
62509;SDS011;48558;48.242;11.654;2022-11-15T17:02:14;5.32;;;4.30;;
62509;SDS011;48558;48.242;11.654;2022-11-15T17:06:26;5.25;;;4.25;;
62509;SDS011;48558;48.242;11.654;2022-11-15T17:10:44;6.90;;;4.85;;
62509;SDS011;48558;48.242;11.654;2022-11-15T17:14:56;6.53;;;4.30;;
62509;SDS011;48558;48.242;11.654;2022-11-15T17:19:12;5.55;;;3.85;;
62509;SDS011;48558;48.242;11.654;2022-11-15T17:23:26;8.63;;;4.45;;
62509;SDS011;48558;48.242;11.654;2022-11-15T17:27:38;5.97;;;4.25;;
62509;SDS011;48558;48.242;11.654;2022-11-15T17:31:50;5.18;;;3.53;;
62509;SDS011;48558;48.242;11.654;2022-11-15T17:36:04;5.18;;;3.75;;
62509;SDS011;48558;48.242;11.654;2022-11-15T17:40:18;4.82;;;3.53;;
62509;SDS011;48558;48.242;11.654;2022-11-15T17:44:30;5.53;;;3.83;;
62509;SDS011;48558;48.242;11.654;2022-11-15T17:48:44;4.47;;;3.22;;
62509;SDS011;48558;48.242;11.654;2022-11-15T17:52:57;3.15;;;2.78;;
62509;SDS011;48558;48.242;11.654;2022-11-15T17:57:16;5.30;;;3.08;;
62509;SDS011;48558;48.242;11.654;2022-11-15T18:01:29;8.18;;;3.38;;
62509;SDS011;48558;48.242;11.654;2022-11-15T18:05:44;4.88;;;3.75;;
62509;SDS011;48558;48.242;11.654;2022-11-15T18:09:56;6.20;;;4.78;;
62509;SDS011;48558;48.242;11.654;2022-11-15T18:14:12;9.30;;;5.30;;
62509;SDS011;48558;48.242;11.654;2022-11-15T18:18:26;10.45;;;5.80;;
62509;SDS011;48558;48.242;11.654;2022-11-15T18:22:38;7.00;;;5.35;;
62509;SDS011;48558;48.242;11.654;2022-11-15T18:26:50;9.18;;;5.60;;
62509;SDS011;48558;48.242;11.654;2022-11-15T18:31:03;9.90;;;5.45;;
62509;SDS011;48558;48.242;11.654;2022-11-15T18:35:32;8.27;;;5.25;;
62509;SDS011;48558;48.242;11.654;2022-11-15T18:39:45;12.95;;;5.35;;
62509;SDS011;48558;48.242;11.654;2022-11-15T18:44:04;6.13;;;4.40;;
62509;SDS011;48558;48.242;11.654;2022-11-15T18:48:19;6.85;;;4.78;;
62509;SDS011;48558;48.242;11.654;2022-11-15T18:52:32;5.57;;;4.70;;
62509;SDS011;48558;48.242;11.654;2022-11-15T18:56:44;5.53;;;4.50;;
62509;SDS011;48558;48.242;11.654;2022-11-15T19:01:01;8.98;;;5.85;;
62509;SDS011;48558;48.242;11.654;2022-11-15T19:05:15;7.97;;;5.70;;
62509;SDS011;48558;48.242;11.654;2022-11-15T19:09:29;8.43;;;6.10;;
62509;SDS011;48558;48.242;11.654;2022-11-15T19:13:43;13.98;;;6.38;;
62509;SDS011;48558;48.242;11.654;2022-11-15T19:17:57;7.57;;;5.53;;
62509;SDS011;48558;48.242;11.654;2022-11-15T19:22:09;10.57;;;6.18;;
62509;SDS011;48558;48.242;11.654;2022-11-15T19:26:21;8.95;;;6.10;;
62509;SDS011;48558;48.242;11.654;2022-11-15T19:30:37;10.80;;;6.25;;
62509;SDS011;48558;48.242;11.654;2022-11-15T19:34:49;10.15;;;6.57;;
62509;SDS011;48558;48.242;11.654;2022-11-15T19:39:02;8.07;;;5.25;;
62509;SDS011;48558;48.242;11.654;2022-11-15T19:43:19;9.43;;;5.72;;
62509;SDS011;48558;48.242;11.654;2022-11-15T19:47:31;8.82;;;6.10;;
62509;SDS011;48558;48.242;11.654;2022-11-15T19:51:43;8.50;;;5.57;;
62509;SDS011;48558;48.242;11.654;2022-11-15T19:56:02;10.90;;;6.32;;
62509;SDS011;48558;48.242;11.654;2022-11-15T20:00:16;7.07;;;5.13;;
62509;SDS011;48558;48.242;11.654;2022-11-15T20:04:29;7.35;;;5.45;;
62509;SDS011;48558;48.242;11.654;2022-11-15T20:08:42;8.77;;;5.40;;
62509;SDS011;48558;48.242;11.654;2022-11-15T20:12:59;7.45;;;5.45;;
62509;SDS011;48558;48.242;11.654;2022-11-15T20:17:12;8.00;;;6.00;;
62509;SDS011;48558;48.242;11.654;2022-11-15T20:21:24;9.60;;;5.60;;
62509;SDS011;48558;48.242;11.654;2022-11-15T20:25:37;11.95;;;5.90;;
62509;SDS011;48558;48.242;11.654;2022-11-15T20:29:49;6.50;;;5.28;;
62509;SDS011;48558;48.242;11.654;2022-11-15T20:34:04;6.93;;;5.47;;
62509;SDS011;48558;48.242;11.654;2022-11-15T20:38:17;10.18;;;6.25;;
62509;SDS011;48558;48.242;11.654;2022-11-15T20:42:31;9.68;;;6.47;;
62509;SDS011;48558;48.242;11.654;2022-11-15T20:46:44;11.70;;;5.88;;
62509;SDS011;48558;48.242;11.654;2022-11-15T20:51:16;9.43;;;6.75;;
62509;SDS011;48558;48.242;11.654;2022-11-15T20:55:29;9.40;;;6.10;;
62509;SDS011;48558;48.242;11.654;2022-11-15T20:59:41;10.00;;;6.53;;
62509;SDS011;48558;48.242;11.654;2022-11-15T21:03:54;9.57;;;6.60;;
62509;SDS011;48558;48.242;11.654;2022-11-15T21:08:07;9.98;;;7.18;;
62509;SDS011;48558;48.242;11.654;2022-11-15T21:12:20;13.18;;;6.72;;
62509;SDS011;48558;48.242;11.654;2022-11-15T21:16:33;16.15;;;7.75;;
62509;SDS011;48558;48.242;11.654;2022-11-15T21:20:45;12.98;;;6.72;;
62509;SDS011;48558;48.242;11.654;2022-11-15T21:24:58;14.82;;;6.75;;
62509;SDS011;48558;48.242;11.654;2022-11-15T21:29:11;8.60;;;6.10;;
62509;SDS011;48558;48.242;11.654;2022-11-15T21:33:28;8.88;;;6.10;;
62509;SDS011;48558;48.242;11.654;2022-11-15T21:37:40;11.45;;;6.10;;
62509;SDS011;48558;48.242;11.654;2022-11-15T21:41:52;11.60;;;5.97;;
62509;SDS011;48558;48.242;11.654;2022-11-15T21:46:05;9.52;;;5.68;;
62509;SDS011;48558;48.242;11.654;2022-11-15T21:50:17;8.95;;;5.72;;
62509;SDS011;48558;48.242;11.654;2022-11-15T21:54:30;8.32;;;5.22;;
62509;SDS011;48558;48.242;11.654;2022-11-15T21:58:42;6.10;;;4.78;;
62509;SDS011;48558;48.242;11.654;2022-11-15T22:02:54;6.45;;;4.82;;
62509;SDS011;48558;48.242;11.654;2022-11-15T22:07:07;5.93;;;4.30;;
62509;SDS011;48558;48.242;11.654;2022-11-15T22:11:19;4.80;;;4.07;;
62509;SDS011;48558;48.242;11.654;2022-11-15T22:15:32;6.85;;;4.28;;
62509;SDS011;48558;48.242;11.654;2022-11-15T22:19:44;5.78;;;4.30;;
62509;SDS011;48558;48.242;11.654;2022-11-15T22:24:02;6.60;;;4.53;;
62509;SDS011;48558;48.242;11.654;2022-11-15T22:28:16;5.28;;;4.22;;
62509;SDS011;48558;48.242;11.654;2022-11-15T22:32:35;5.78;;;4.40;;
62509;SDS011;48558;48.242;11.654;2022-11-15T22:36:47;7.43;;;4.47;;
62509;SDS011;48558;48.242;11.654;2022-11-15T22:41:19;8.15;;;5.07;;
62509;SDS011;48558;48.242;11.654;2022-11-15T22:45:32;7.78;;;4.93;;
62509;SDS011;48558;48.242;11.654;2022-11-15T22:49:44;6.38;;;5.18;;
62509;SDS011;48558;48.242;11.654;2022-11-15T22:53:57;6.80;;;5.25;;
62509;SDS011;48558;48.242;11.654;2022-11-15T22:58:09;10.02;;;6.28;;
62509;SDS011;48558;48.242;11.654;2022-11-15T23:02:21;9.07;;;6.35;;
62509;SDS011;48558;48.242;11.654;2022-11-15T23:06:34;9.75;;;5.72;;
62509;SDS011;48558;48.242;11.654;2022-11-15T23:10:46;10.93;;;7.20;;
62509;SDS011;48558;48.242;11.654;2022-11-15T23:15:17;8.85;;;5.82;;
62509;SDS011;48558;48.242;11.654;2022-11-15T23:19:29;8.90;;;5.38;;
62509;SDS011;48558;48.242;11.654;2022-11-15T23:23:41;9.95;;;6.07;;
62509;SDS011;48558;48.242;11.654;2022-11-15T23:27:54;9.98;;;6.07;;
62509;SDS011;48558;48.242;11.654;2022-11-15T23:32:07;9.98;;;5.82;;
62509;SDS011;48558;48.242;11.654;2022-11-15T23:36:38;7.53;;;5.55;;
62509;SDS011;48558;48.242;11.654;2022-11-15T23:40:51;9.30;;;5.40;;
62509;SDS011;48558;48.242;11.654;2022-11-15T23:45:05;8.27;;;5.30;;
62509;SDS011;48558;48.242;11.654;2022-11-15T23:49:18;6.88;;;4.68;;
62509;SDS011;48558;48.242;11.654;2022-11-15T23:53:30;9.35;;;5.05;;
62509;SDS011;48558;48.242;11.654;2022-11-15T23:57:43;11.15;;;5.97;;
